Time;durP1;ratioP1;P1;durP2;ratioP2;P2;SDS_P1;SDS_P2;PMS_P1;PMS_P2;Temp;Humidity;BMP_temperature;BMP_pressure;BME280_temperature;BME280_humidity;BME280_pressure;Samples;Min_cycle;Max_cycle;Signal;HPM_P1;HPM_P2
2024/01/27 00:01:33;;;;;;;18.38;3.70;;;3.10;99.90;;;;;;5004833;28;20050;-35
2024/01/27 00:03:59;;;;;;;12.73;2.50;;;3.10;99.90;;;;;;5004797;28;20061;-35
2024/01/27 00:06:25;;;;;;;16.48;2.55;;;3.10;99.90;;;;;;5006603;28;20475;-34
2024/01/27 00:08:50;;;;;;;16.55;3.13;;;3.00;99.90;;;;;;5005720;28;20057;-37
2024/01/27 00:11:16;;;;;;;13.75;3.03;;;3.00;99.90;;;;;;4999711;28;20499;-35
2024/01/27 00:13:42;;;;;;;13.23;3.20;;;2.90;99.90;;;;;;5005597;28;20072;-35
2024/01/27 00:16:09;;;;;;;12.82;2.58;;;2.80;99.90;;;;;;4999758;28;20062;-34
2024/01/27 00:18:38;;;;;;;12.85;2.63;;;2.70;99.90;;;;;;5007137;28;20202;-35
2024/01/27 00:21:05;;;;;;;23.20;2.75;;;2.70;99.90;;;;;;5010463;28;20037;-35
2024/01/27 00:23:32;;;;;;;16.38;3.05;;;2.70;99.90;;;;;;5006386;28;20054;-35
2024/01/27 00:25:59;;;;;;;16.67;4.05;;;2.70;99.90;;;;;;5001479;28;20095;-35
2024/01/27 00:28:24;;;;;;;15.27;3.38;;;2.70;99.90;;;;;;5008222;28;20444;-35
2024/01/27 00:30:50;;;;;;;11.40;3.00;;;2.80;99.90;;;;;;5000697;28;20053;-35
2024/01/27 00:33:16;;;;;;;15.23;3.15;;;2.70;99.90;;;;;;5011718;28;20088;-35
2024/01/27 00:35:42;;;;;;;11.82;2.80;;;2.70;99.90;;;;;;5006147;28;20056;-35
2024/01/27 00:38:08;;;;;;;14.88;3.17;;;2.60;99.90;;;;;;5003532;28;20140;-35
2024/01/27 00:40:34;;;;;;;16.25;3.58;;;2.60;99.90;;;;;;5003907;28;20043;-34
2024/01/27 00:42:59;;;;;;;16.08;3.75;;;2.50;99.90;;;;;;5006579;28;20037;-35
2024/01/27 00:45:27;;;;;;;17.58;3.28;;;2.50;99.90;;;;;;5005168;28;20139;-35
2024/01/27 00:47:53;;;;;;;13.32;2.45;;;2.50;99.90;;;;;;5006944;28;20057;-35
2024/01/27 00:50:18;;;;;;;12.48;4.25;;;2.50;99.90;;;;;;5005611;28;20073;-35
2024/01/27 00:52:44;;;;;;;13.48;4.75;;;2.40;99.90;;;;;;5005033;28;20096;-35
2024/01/27 00:55:10;;;;;;;13.07;4.68;;;2.40;99.90;;;;;;5002902;28;20045;-35
2024/01/27 00:57:39;;;;;;;15.27;4.50;;;2.30;99.90;;;;;;5001828;28;20060;-35
2024/01/27 01:00:06;;;;;;;15.00;4.63;;;2.30;99.90;;;;;;4995129;28;20107;-35
2024/01/27 01:02:32;;;;;;;15.00;4.22;;;2.30;99.90;;;;;;4998390;28;20050;-34
2024/01/27 01:04:58;;;;;;;16.50;4.68;;;2.30;99.90;;;;;;5002860;28;20101;-35
2024/01/27 01:07:24;;;;;;;13.73;4.70;;;2.30;99.90;;;;;;5003991;28;20112;-36
2024/01/27 01:09:49;;;;;;;17.00;5.22;;;2.30;99.90;;;;;;5007100;28;20061;-35
2024/01/27 01:12:15;;;;;;;13.35;4.30;;;2.20;99.90;;;;;;5007626;28;22962;-34
2024/01/27 01:14:42;;;;;;;15.13;4.50;;;2.20;99.90;;;;;;4996247;28;20053;-34
2024/01/27 01:17:08;;;;;;;17.67;4.85;;;2.20;99.90;;;;;;5004163;28;20054;-34
2024/01/27 01:19:34;;;;;;;15.90;4.30;;;2.10;99.90;;;;;;5004344;28;20049;-34
2024/01/27 01:22:00;;;;;;;15.48;4.78;;;2.20;99.90;;;;;;5022326;28;20054;-34
2024/01/27 01:24:25;;;;;;;10.30;4.10;;;2.10;99.90;;;;;;5008763;28;20049;-34
2024/01/27 01:26:51;;;;;;;14.55;3.70;;;2.20;99.90;;;;;;5030047;28;20053;-34
2024/01/27 01:29:17;;;;;;;12.20;3.88;;;2.20;99.90;;;;;;5032643;28;20056;-34
2024/01/27 01:31:43;;;;;;;15.60;4.10;;;2.30;99.90;;;;;;5024579;28;20057;-34
2024/01/27 01:34:08;;;;;;;13.40;3.45;;;2.20;99.90;;;;;;5020709;28;20069;-34
2024/01/27 01:36:34;;;;;;;11.77;3.30;;;2.20;99.90;;;;;;5025535;28;20552;-34
2024/01/27 01:39:00;;;;;;;13.80;4.10;;;2.10;99.90;;;;;;5029956;28;20053;-34
2024/01/27 01:41:25;;;;;;;11.60;3.60;;;2.00;99.90;;;;;;5025960;28;20049;-34
2024/01/27 01:43:51;;;;;;;10.20;3.60;;;2.00;99.90;;;;;;5028707;28;20404;-33
2024/01/27 01:46:17;;;;;;;17.00;3.78;;;2.00;99.90;;;;;;5026479;28;20141;-34
2024/01/27 01:48:44;;;;;;;11.65;3.70;;;2.10;99.90;;;;;;5031572;28;20057;-34
2024/01/27 01:51:10;;;;;;;8.52;2.88;;;2.10;99.90;;;;;;5026202;28;20049;-34
2024/01/27 01:53:36;;;;;;;16.48;4.03;;;2.10;99.90;;;;;;5027438;28;20128;-34
2024/01/27 01:56:02;;;;;;;12.88;3.20;;;2.10;99.90;;;;;;5026899;28;20076;-34
2024/01/27 01:58:33;;;;;;;12.43;4.03;;;2.00;99.90;;;;;;5029486;28;20042;-35
2024/01/27 02:01:02;;;;;;;14.30;3.88;;;2.10;99.90;;;;;;5025138;28;20136;-35
2024/01/27 02:03:28;;;;;;;11.90;3.85;;;2.10;99.90;;;;;;5027193;28;20410;-34
2024/01/27 02:05:54;;;;;;;13.82;3.67;;;2.10;99.90;;;;;;5021197;28;20057;-35
2024/01/27 02:08:20;;;;;;;15.00;4.07;;;2.10;99.90;;;;;;5030911;28;20049;-36
2024/01/27 02:10:46;;;;;;;14.70;3.70;;;2.10;99.90;;;;;;5027105;28;20053;-34
2024/01/27 02:13:21;;;;;;;15.70;3.13;;;2.10;99.90;;;;;;5032470;28;20049;-34
2024/01/27 02:15:49;;;;;;;15.32;4.28;;;2.00;99.90;;;;;;5031809;28;20060;-34
2024/01/27 02:18:15;;;;;;;12.40;3.90;;;2.00;99.90;;;;;;5043956;28;20131;-34
2024/01/27 02:20:42;;;;;;;11.45;3.60;;;2.00;99.90;;;;;;5039752;28;20057;-34
2024/01/27 02:23:08;;;;;;;15.45;3.92;;;1.90;99.90;;;;;;5018307;28;20187;-34
2024/01/27 02:25:35;;;;;;;13.10;3.75;;;1.90;99.90;;;;;;5012272;28;20058;-35
2024/01/27 02:28:02;;;;;;;12.57;4.38;;;1.90;99.90;;;;;;5008553;28;20054;-35
2024/01/27 02:30:28;;;;;;;12.43;3.95;;;1.80;99.90;;;;;;5006216;28;20094;-34
2024/01/27 02:32:57;;;;;;;16.90;4.72;;;1.80;99.90;;;;;;5008631;28;20049;-34
2024/01/27 02:35:22;;;;;;;12.35;4.63;;;1.80;99.90;;;;;;5006726;28;20061;-34
2024/01/27 02:37:48;;;;;;;12.93;4.93;;;1.80;99.90;;;;;;5007070;28;20419;-35
2024/01/27 02:40:14;;;;;;;12.75;5.07;;;1.90;99.90;;;;;;5008588;28;20052;-35
2024/01/27 02:42:43;;;;;;;9.38;5.53;;;1.80;99.90;;;;;;5008467;28;20487;-35
2024/01/27 02:45:11;;;;;;;14.93;5.70;;;1.80;99.90;;;;;;5007650;28;20049;-35
2024/01/27 02:47:36;;;;;;;13.02;6.85;;;1.80;99.90;;;;;;5004412;28;20105;-34
2024/01/27 02:50:03;;;;;;;16.75;6.47;;;1.80;99.90;;;;;;5008031;28;20061;-34
2024/01/27 02:52:29;;;;;;;20.73;7.07;;;1.80;99.90;;;;;;5010548;28;20047;-34
2024/01/27 02:54:55;;;;;;;13.73;7.20;;;1.80;99.90;;;;;;5014347;28;20053;-34
2024/01/27 02:57:21;;;;;;;15.25;6.32;;;1.90;99.90;;;;;;5010406;28;20448;-35
2024/01/27 02:59:47;;;;;;;19.77;6.10;;;1.90;99.90;;;;;;5004571;28;20054;-34
2024/01/27 03:02:13;;;;;;;21.58;6.70;;;1.90;99.90;;;;;;5010584;28;20054;-34
2024/01/27 03:04:39;;;;;;;17.52;7.35;;;2.00;99.90;;;;;;5011045;28;20517;-35
2024/01/27 03:07:05;;;;;;;18.90;8.50;;;1.90;99.90;;;;;;5003502;28;20399;-34
2024/01/27 03:09:31;;;;;;;16.20;6.50;;;1.90;99.90;;;;;;5008027;28;20042;-34
2024/01/27 03:11:57;;;;;;;15.90;6.32;;;1.90;99.90;;;;;;5017596;28;20533;-34
2024/01/27 03:14:23;;;;;;;16.27;7.07;;;1.80;99.90;;;;;;5001526;28;20065;-34
2024/01/27 03:16:49;;;;;;;18.35;8.20;;;1.80;99.90;;;;;;5009189;28;20068;-34
2024/01/27 03:19:15;;;;;;;17.15;9.15;;;1.80;99.90;;;;;;5011238;28;20049;-35
2024/01/27 03:21:40;;;;;;;17.70;7.72;;;1.80;99.90;;;;;;5014216;28;20142;-35
2024/01/27 03:24:06;;;;;;;16.92;10.75;;;1.80;99.90;;;;;;5007181;28;20090;-34
2024/01/27 03:26:32;;;;;;;15.45;8.57;;;1.80;99.90;;;;;;5007409;28;20068;-35
2024/01/27 03:28:57;;;;;;;20.08;8.63;;;1.70;99.90;;;;;;5009812;28;20104;-34
2024/01/27 03:31:23;;;;;;;18.02;8.32;;;1.70;99.90;;;;;;5008665;28;20069;-34
2024/01/27 03:33:49;;;;;;;15.23;8.93;;;1.70;99.90;;;;;;5012624;28;20050;-34
2024/01/27 03:36:15;;;;;;;16.92;7.55;;;1.70;99.90;;;;;;5005834;28;20144;-34
2024/01/27 03:38:41;;;;;;;19.33;11.80;;;1.70;99.90;;;;;;5009151;28;20053;-34
2024/01/27 03:41:07;;;;;;;13.90;10.60;;;1.70;99.90;;;;;;5007570;28;20423;-34
2024/01/27 03:43:36;;;;;;;19.70;9.98;;;1.70;99.90;;;;;;5001111;28;20056;-35
2024/01/27 03:46:03;;;;;;;17.02;11.80;;;1.60;99.90;;;;;;5006109;28;20057;-34
2024/01/27 03:48:28;;;;;;;20.20;9.93;;;1.60;99.90;;;;;;5012478;28;20068;-35
2024/01/27 03:50:54;;;;;;;17.45;10.38;;;1.60;99.90;;;;;;5011208;28;20042;-35
2024/01/27 03:53:20;;;;;;;20.80;11.25;;;1.70;99.90;;;;;;5013804;28;21551;-35
2024/01/27 03:55:46;;;;;;;14.38;12.90;;;1.70;99.90;;;;;;5013686;28;20332;-35
2024/01/27 03:58:11;;;;;;;15.15;10.60;;;1.70;99.90;;;;;;5009014;28;20138;-34
2024/01/27 04:00:37;;;;;;;16.40;13.45;;;1.70;99.90;;;;;;5010151;28;20058;-35
2024/01/27 04:03:03;;;;;;;14.77;12.95;;;1.60;99.90;;;;;;5006209;28;20071;-34
2024/01/27 04:05:30;;;;;;;14.35;10.48;;;1.70;99.90;;;;;;5002078;28;20050;-34
2024/01/27 04:07:56;;;;;;;20.42;12.32;;;1.70;99.90;;;;;;5001413;28;20046;-35
2024/01/27 04:10:22;;;;;;;23.05;10.30;;;1.70;99.90;;;;;;5012709;28;20462;-34
2024/01/27 04:12:48;;;;;;;21.25;11.32;;;1.70;99.90;;;;;;5003155;28;20521;-35
2024/01/27 04:15:14;;;;;;;19.60;10.98;;;1.60;99.90;;;;;;5008864;28;20054;-35
2024/01/27 04:17:40;;;;;;;16.48;8.95;;;1.60;99.90;;;;;;5018261;28;20053;-35
2024/01/27 04:20:07;;;;;;;16.67;11.85;;;1.50;99.90;;;;;;5011542;28;20061;-35
2024/01/27 04:22:34;;;;;;;23.20;11.32;;;1.50;99.90;;;;;;5027019;28;20053;-34
2024/01/27 04:25:00;;;;;;;19.90;10.70;;;1.50;99.90;;;;;;5019275;28;20487;-34
2024/01/27 04:27:28;;;;;;;19.73;12.43;;;1.40;99.90;;;;;;5028523;28;20054;-34
2024/01/27 04:29:54;;;;;;;25.55;13.65;;;1.50;99.90;;;;;;5023880;28;20049;-35
2024/01/27 04:32:21;;;;;;;20.00;13.40;;;1.40;99.90;;;;;;5010098;28;21665;-35
2024/01/27 04:34:47;;;;;;;19.38;11.82;;;1.40;99.90;;;;;;5033204;28;20061;-35
2024/01/27 04:37:13;;;;;;;20.92;13.45;;;1.40;99.90;;;;;;5019250;28;20491;-34
2024/01/27 04:39:38;;;;;;;16.67;13.55;;;1.40;99.90;;;;;;5033383;28;20057;-34
2024/01/27 04:42:06;;;;;;;16.90;12.70;;;1.60;99.90;;;;;;5030304;28;20077;-34
2024/01/27 04:44:32;;;;;;;18.52;11.45;;;1.40;99.90;;;;;;5026126;28;20520;-35
2024/01/27 04:46:58;;;;;;;15.02;13.43;;;1.50;99.90;;;;;;5028281;28;20504;-34
2024/01/27 04:49:24;;;;;;;19.13;11.23;;;1.40;99.90;;;;;;5030688;28;20060;-34
2024/01/27 04:51:49;;;;;;;18.98;11.02;;;1.40;99.90;;;;;;5029336;28;20096;-35
2024/01/27 04:54:15;;;;;;;18.83;10.50;;;1.30;99.90;;;;;;5020921;28;20063;-35
2024/01/27 04:56:41;;;;;;;20.00;14.77;;;1.30;99.90;;;;;;5031244;28;20053;-34
2024/01/27 04:59:07;;;;;;;21.25;10.82;;;1.40;99.90;;;;;;5029803;28;20056;-34
2024/01/27 05:01:33;;;;;;;21.52;11.57;;;1.40;99.90;;;;;;5027542;28;20049;-35
2024/01/27 05:03:59;;;;;;;20.45;13.82;;;1.50;99.90;;;;;;5030365;28;20143;-35
2024/01/27 05:06:25;;;;;;;19.13;13.48;;;1.50;99.90;;;;;;5026615;28;20058;-35
2024/01/27 05:08:51;;;;;;;22.98;12.30;;;1.60;99.90;;;;;;5023262;28;20053;-34
2024/01/27 05:11:30;;;;;;;24.33;13.38;;;1.60;99.90;;;;;;5028554;28;20254;-35
2024/01/27 05:13:55;;;;;;;22.35;16.27;;;1.60;99.90;;;;;;5009838;28;20046;-34
2024/01/27 05:16:21;;;;;;;19.08;12.70;;;1.60;99.90;;;;;;5024934;28;20504;-34
2024/01/27 05:18:47;;;;;;;21.20;14.57;;;1.50;99.90;;;;;;5027483;28;20056;-34
2024/01/27 05:21:12;;;;;;;18.17;12.13;;;1.60;99.90;;;;;;5030610;28;20188;-35
2024/01/27 05:23:38;;;;;;;22.50;12.38;;;1.50;99.90;;;;;;5022379;28;20057;-34
2024/01/27 05:26:06;;;;;;;20.92;14.20;;;1.50;99.90;;;;;;5022852;28;20076;-35
2024/01/27 05:28:31;;;;;;;16.90;13.55;;;1.50;99.90;;;;;;5029745;28;20045;-34
2024/01/27 05:30:57;;;;;;;21.20;12.10;;;1.50;99.90;;;;;;5026270;28;20059;-35
2024/01/27 05:33:23;;;;;;;22.77;12.10;;;1.40;99.90;;;;;;5027343;28;20069;-34
2024/01/27 05:35:49;;;;;;;18.05;13.27;;;1.40;99.90;;;;;;5026607;28;20049;-35
2024/01/27 05:38:16;;;;;;;21.42;13.45;;;1.40;99.90;;;;;;5025666;28;20057;-35
2024/01/27 05:40:42;;;;;;;18.23;13.57;;;1.40;99.90;;;;;;5011024;28;20053;-34
2024/01/27 05:43:07;;;;;;;19.52;14.90;;;1.40;99.90;;;;;;5027099;28;20056;-34
2024/01/27 05:45:34;;;;;;;20.67;14.10;;;1.40;99.90;;;;;;5006855;28;20529;-34
2024/01/27 05:48:00;;;;;;;21.90;14.88;;;1.30;99.90;;;;;;5023087;28;20054;-35
2024/01/27 05:50:26;;;;;;;19.70;14.23;;;1.40;99.90;;;;;;5030892;28;20152;-34
2024/01/27 05:52:52;;;;;;;18.33;14.40;;;1.40;99.90;;;;;;5034701;28;20044;-34
2024/01/27 05:55:18;;;;;;;22.17;17.25;;;1.30;99.90;;;;;;5031371;28;20096;-35
2024/01/27 05:57:44;;;;;;;17.63;14.50;;;1.40;99.90;;;;;;5030731;28;20053;-35
2024/01/27 06:00:10;;;;;;;28.95;17.05;;;1.30;99.90;;;;;;5028939;28;20470;-35
2024/01/27 06:02:36;;;;;;;23.20;17.30;;;1.40;99.90;;;;;;5034707;28;20303;-34
2024/01/27 06:05:02;;;;;;;24.77;17.05;;;1.40;99.90;;;;;;5035322;28;20049;-34
2024/01/27 06:07:28;;;;;;;24.98;17.80;;;1.40;99.90;;;;;;5031604;28;20068;-35
2024/01/27 06:09:54;;;;;;;22.38;15.00;;;1.30;99.90;;;;;;5022490;28;20057;-34
2024/01/27 06:12:20;;;;;;;24.33;15.73;;;1.40;99.90;;;;;;5027870;28;20057;-34
2024/01/27 06:14:46;;;;;;;24.58;15.18;;;1.40;99.90;;;;;;5033062;28;20088;-35
2024/01/27 06:17:14;;;;;;;21.40;15.57;;;1.30;99.90;;;;;;5030503;28;20053;-35
2024/01/27 06:19:40;;;;;;;24.13;15.63;;;1.40;99.90;;;;;;5029512;28;20111;-35
2024/01/27 06:22:06;;;;;;;20.95;15.07;;;1.40;99.90;;;;;;5020232;28;20045;-34
2024/01/27 06:24:32;;;;;;;26.25;16.17;;;1.30;99.90;;;;;;5029138;28;20128;-34
2024/01/27 06:26:57;;;;;;;23.38;13.52;;;1.30;99.90;;;;;;5029996;28;20064;-35
2024/01/27 06:29:25;;;;;;;26.70;17.38;;;1.40;99.90;;;;;;5030881;28;20487;-35
2024/01/27 06:31:51;;;;;;;23.23;15.63;;;1.40;99.90;;;;;;5029534;28;20049;-34
2024/01/27 06:34:17;;;;;;;23.10;15.43;;;1.40;99.90;;;;;;5031561;28;20132;-35
2024/01/27 06:36:42;;;;;;;21.88;16.65;;;1.30;99.90;;;;;;5037688;28;20144;-34
2024/01/27 06:39:08;;;;;;;24.08;15.23;;;1.30;99.90;;;;;;5028128;28;20045;-34
2024/01/27 06:41:34;;;;;;;20.60;13.75;;;1.30;99.90;;;;;;5030768;28;20088;-35
2024/01/27 06:44:00;;;;;;;19.95;15.18;;;1.40;99.90;;;;;;5031011;28;20045;-35
2024/01/27 06:46:25;;;;;;;18.35;14.63;;;1.40;99.90;;;;;;5026704;28;20076;-34
2024/01/27 06:48:51;;;;;;;19.08;13.85;;;1.40;99.90;;;;;;5032498;28;20140;-34
2024/01/27 06:51:17;;;;;;;19.08;13.93;;;1.40;99.90;;;;;;5027454;28;20051;-34
2024/01/27 06:53:42;;;;;;;22.30;12.73;;;1.40;99.90;;;;;;5028611;28;20049;-35
2024/01/27 06:56:08;;;;;;;23.20;14.07;;;1.30;99.90;;;;;;5028828;28;20529;-35
2024/01/27 06:58:34;;;;;;;22.83;14.75;;;1.30;99.90;;;;;;5024567;28;20106;-34
2024/01/27 07:01:00;;;;;;;20.13;14.43;;;1.30;99.90;;;;;;5026160;28;20039;-34
2024/01/27 07:03:26;;;;;;;25.90;14.90;;;1.30;99.90;;;;;;5017929;28;20053;-35
2024/01/27 07:05:52;;;;;;;18.60;12.57;;;1.20;99.90;;;;;;5024814;28;20067;-34
2024/01/27 07:08:17;;;;;;;21.00;15.55;;;1.30;99.90;;;;;;5033461;28;20056;-35
2024/01/27 07:10:43;;;;;;;22.45;14.45;;;1.30;99.90;;;;;;5026533;28;20164;-35
2024/01/27 07:13:09;;;;;;;18.58;14.43;;;1.30;99.90;;;;;;5036331;28;20049;-35
2024/01/27 07:15:37;;;;;;;25.75;13.43;;;1.30;99.90;;;;;;5034660;28;20052;-35
2024/01/27 07:18:03;;;;;;;23.75;14.63;;;1.20;99.90;;;;;;5024855;28;20171;-35
2024/01/27 07:20:29;;;;;;;18.55;14.95;;;1.20;99.90;;;;;;5033966;28;20037;-34
2024/01/27 07:22:55;;;;;;;24.35;16.17;;;1.20;99.90;;;;;;5029504;28;20045;-35
2024/01/27 07:25:20;;;;;;;21.90;15.73;;;1.20;99.90;;;;;;5029451;28;20057;-34
2024/01/27 07:27:46;;;;;;;20.48;15.15;;;1.20;99.90;;;;;;5035411;28;20179;-35
2024/01/27 07:30:12;;;;;;;21.73;14.77;;;1.20;99.90;;;;;;5014427;28;20052;-35
2024/01/27 07:32:38;;;;;;;25.35;15.90;;;1.20;99.90;;;;;;5034919;28;20057;-34
2024/01/27 07:35:05;;;;;;;24.13;14.43;;;1.20;99.90;;;;;;5031398;28;20609;-34
2024/01/27 07:37:31;;;;;;;20.63;12.63;;;1.20;99.90;;;;;;5032059;28;20143;-35
2024/01/27 07:39:57;;;;;;;16.83;13.27;;;1.20;99.90;;;;;;5026733;28;20590;-35
2024/01/27 07:42:23;;;;;;;16.20;11.23;;;1.30;99.90;;;;;;5028766;28;20065;-35
2024/01/27 07:44:49;;;;;;;26.88;13.98;;;1.30;99.90;;;;;;5032228;28;20061;-34
2024/01/27 07:47:15;;;;;;;22.88;12.80;;;1.30;99.90;;;;;;5032423;28;20098;-35
2024/01/27 07:49:40;;;;;;;23.13;11.80;;;1.40;99.90;;;;;;5031496;28;20057;-35
2024/01/27 07:52:06;;;;;;;20.63;11.75;;;1.30;99.90;;;;;;5032235;28;20445;-34
2024/01/27 07:54:32;;;;;;;22.23;11.00;;;1.30;99.90;;;;;;5030873;28;20051;-34
2024/01/27 07:56:59;;;;;;;19.42;10.05;;;1.40;99.90;;;;;;5033689;28;20048;-34
2024/01/27 07:59:25;;;;;;;21.90;11.40;;;1.40;99.90;;;;;;5033364;28;20152;-34
2024/01/27 08:01:50;;;;;;;23.67;11.73;;;1.40;99.90;;;;;;5026849;28;20061;-34
2024/01/27 08:04:16;;;;;;;24.30;10.48;;;1.40;99.90;;;;;;5033204;28;20061;-34
2024/01/27 08:06:47;;;;;;;16.27;10.52;;;1.50;99.90;;;;;;5031238;28;20132;-34
2024/01/27 08:09:13;;;;;;;23.30;10.38;;;1.50;99.90;;;;;;5025916;28;21018;-34
2024/01/27 08:11:38;;;;;;;26.08;11.98;;;1.50;99.90;;;;;;5025130;28;20049;-34
2024/01/27 08:14:04;;;;;;;18.42;10.10;;;1.50;99.90;;;;;;5028458;28;20072;-35
2024/01/27 08:16:30;;;;;;;22.40;10.32;;;1.60;99.90;;;;;;5024006;28;20418;-35
2024/01/27 08:18:55;;;;;;;22.25;11.00;;;1.50;99.90;;;;;;5031660;28;20052;-34
2024/01/27 08:21:21;;;;;;;25.70;10.82;;;1.60;99.90;;;;;;5033161;28;20045;-35
2024/01/27 08:23:47;;;;;;;21.30;11.57;;;1.70;99.90;;;;;;5035937;28;20045;-35
2024/01/27 08:26:13;;;;;;;24.23;10.43;;;1.70;99.90;;;;;;5011360;28;20565;-34
2024/01/27 08:28:38;;;;;;;22.20;10.40;;;1.70;99.90;;;;;;5027624;28;20141;-34
2024/01/27 08:31:04;;;;;;;30.45;11.77;;;1.80;99.90;;;;;;5022692;28;20046;-43
2024/01/27 08:33:30;;;;;;;21.15;11.20;;;1.90;99.90;;;;;;5026117;28;20052;-34
2024/01/27 08:35:56;;;;;;;24.15;11.02;;;1.90;99.90;;;;;;5026968;28;20053;-35
2024/01/27 08:38:22;;;;;;;20.20;10.38;;;1.90;99.90;;;;;;5024040;28;20526;-34
2024/01/27 08:40:48;;;;;;;24.77;11.10;;;2.00;99.90;;;;;;5033285;28;20518;-36
2024/01/27 08:43:14;;;;;;;24.00;10.55;;;2.00;99.90;;;;;;5040666;28;20545;-35
2024/01/27 08:45:39;;;;;;;21.75;10.75;;;2.10;99.90;;;;;;5032068;28;20060;-35
2024/01/27 08:48:06;;;;;;;27.05;10.98;;;2.20;99.90;;;;;;5028216;28;20488;-35
2024/01/27 08:50:32;;;;;;;21.92;10.60;;;2.20;99.90;;;;;;5018695;28;20136;-34
2024/01/27 08:52:58;;;;;;;22.85;10.85;;;2.30;99.90;;;;;;5025909;28;22091;-36
2024/01/27 08:55:24;;;;;;;22.30;11.05;;;2.30;99.90;;;;;;5028775;28;20688;-36
2024/01/27 08:57:50;;;;;;;23.40;10.60;;;2.30;99.90;;;;;;5039093;28;20051;-36
2024/01/27 09:00:16;;;;;;;25.98;11.05;;;2.40;99.90;;;;;;5034425;28;20053;-36
2024/01/27 09:02:43;;;;;;;23.70;10.45;;;2.50;99.90;;;;;;5033066;28;20549;-35
2024/01/27 09:05:09;;;;;;;23.30;11.40;;;2.50;99.90;;;;;;5028323;28;20061;-35
2024/01/27 09:07:35;;;;;;;20.80;10.00;;;2.50;99.90;;;;;;5031073;28;20057;-35
2024/01/27 09:10:01;;;;;;;19.52;9.80;;;2.60;99.90;;;;;;5035190;28;20049;-35
2024/01/27 09:12:27;;;;;;;25.90;12.05;;;2.60;99.90;;;;;;5027259;28;20102;-35
2024/01/27 09:14:54;;;;;;;24.98;10.40;;;2.70;99.90;;;;;;5028881;28;20076;-35
2024/01/27 09:17:22;;;;;;;24.23;10.48;;;2.70;99.90;;;;;;5024470;28;20041;-35
2024/01/27 09:19:48;;;;;;;26.27;11.10;;;2.80;99.90;;;;;;5029559;28;20495;-35
2024/01/27 09:22:14;;;;;;;23.17;9.77;;;2.80;99.90;;;;;;5027360;28;20064;-35
2024/01/27 09:24:40;;;;;;;24.73;10.60;;;2.90;99.90;;;;;;5030383;28;20063;-35
2024/01/27 09:27:06;;;;;;;20.45;9.60;;;3.00;99.90;;;;;;5030348;28;20083;-34
2024/01/27 09:29:31;;;;;;;23.48;10.43;;;3.10;99.90;;;;;;5020528;28;20044;-35
2024/01/27 09:31:57;;;;;;;22.60;10.40;;;3.10;99.90;;;;;;5044331;28;20247;-35
2024/01/27 09:34:23;;;;;;;25.85;11.00;;;3.20;99.90;;;;;;5041613;28;20053;-35
2024/01/27 09:36:48;;;;;;;22.52;10.63;;;3.30;99.90;;;;;;5033166;28;20435;-35
2024/01/27 09:39:14;;;;;;;23.63;11.45;;;3.40;99.90;;;;;;5022796;28;20046;-35
2024/01/27 09:41:40;;;;;;;21.50;10.52;;;3.40;99.90;;;;;;5028564;28;20420;-35
2024/01/27 09:44:06;;;;;;;22.80;10.18;;;3.50;99.90;;;;;;5035980;28;20061;-35
2024/01/27 09:46:32;;;;;;;21.25;10.13;;;3.60;99.90;;;;;;5002893;28;20052;-35
2024/01/27 09:48:58;;;;;;;19.48;9.90;;;3.70;99.90;;;;;;5025507;28;20140;-35
2024/01/27 09:51:25;;;;;;;23.38;10.48;;;3.70;99.90;;;;;;5021061;28;20735;-35
2024/01/27 09:53:52;;;;;;;21.83;10.27;;;3.80;99.90;;;;;;5027886;28;20050;-35
2024/01/27 09:56:19;;;;;;;19.92;9.55;;;3.90;99.90;;;;;;5023782;28;20498;-36
2024/01/27 09:58:45;;;;;;;24.98;9.85;;;4.00;99.90;;;;;;5023503;28;20145;-35
2024/01/27 10:01:12;;;;;;;16.63;8.73;;;4.10;99.90;;;;;;5031073;28;20045;-36
2024/01/27 10:03:41;;;;;;;18.52;9.25;;;4.10;99.90;;;;;;5032820;28;20049;-36
2024/01/27 10:06:10;;;;;;;15.52;8.38;;;4.20;99.90;;;;;;5022405;28;20396;-34
2024/01/27 10:08:37;;;;;;;18.58;9.25;;;4.30;99.90;;;;;;5029354;28;21785;-34
2024/01/27 10:11:10;;;;;;;19.92;9.68;;;4.40;99.90;;;;;;5030294;28;20491;-35
2024/01/27 10:13:36;;;;;;;18.88;9.02;;;4.50;99.90;;;;;;5027402;28;20144;-35
2024/01/27 10:16:03;;;;;;;20.13;8.93;;;4.50;99.90;;;;;;5021005;28;20050;-34
2024/01/27 10:18:30;;;;;;;20.02;9.70;;;4.60;99.90;;;;;;5025075;28;20414;-34
2024/01/27 10:20:56;;;;;;;14.98;8.32;;;4.70;99.90;;;;;;5012912;28;20057;-35
2024/01/27 10:23:22;;;;;;;18.08;8.48;;;4.70;99.90;;;;;;5027593;28;20751;-35
2024/01/27 10:25:48;;;;;;;14.90;9.05;;;4.80;99.90;;;;;;5026215;28;20072;-35
2024/01/27 10:28:14;;;;;;;17.73;9.90;;;4.90;99.90;;;;;;5033171;28;20053;-35
2024/01/27 10:30:40;;;;;;;18.83;8.93;;;4.90;99.90;;;;;;5031859;28;20064;-35
2024/01/27 10:33:10;;;;;;;17.77;8.77;;;5.00;99.90;;;;;;5029331;28;20592;-35
2024/01/27 10:35:36;;;;;;;17.40;9.57;;;5.00;99.90;;;;;;5024978;28;20498;-35
2024/01/27 10:38:02;;;;;;;18.23;9.82;;;5.10;99.90;;;;;;5025438;28;20201;-35
2024/01/27 10:40:28;;;;;;;15.63;8.15;;;5.20;99.90;;;;;;5027670;28;20514;-34
2024/01/27 10:43:07;;;;;;;18.73;8.32;;;5.30;99.90;;;;;;5027861;28;20132;-35
2024/01/27 10:45:38;;;;;;;14.98;7.57;;;5.30;99.90;;;;;;5026757;28;20045;-35
2024/01/27 10:48:05;;;;;;;18.58;8.13;;;5.40;99.90;;;;;;5029798;28;20133;-35
2024/01/27 10:50:37;;;;;;;18.83;8.75;;;5.40;99.90;;;;;;5024075;28;20462;-35
2024/01/27 10:53:13;;;;;;;16.05;8.35;;;5.50;99.90;;;;;;5022070;28;20049;-35
2024/01/27 10:55:42;;;;;;;17.42;8.52;;;5.60;99.90;;;;;;5020938;28;20136;-35
2024/01/27 10:58:08;;;;;;;15.30;7.88;;;5.70;99.90;;;;;;5029013;28;20131;-35
2024/01/27 11:00:34;;;;;;;17.70;8.43;;;5.70;99.90;;;;;;5020845;28;20511;-35
2024/01/27 11:03:02;;;;;;;19.35;7.50;;;5.80;99.90;;;;;;5024179;28;20402;-35
2024/01/27 11:05:29;;;;;;;19.42;7.55;;;5.90;99.90;;;;;;5023229;28;20058;-34
2024/01/27 11:07:57;;;;;;;18.73;7.57;;;5.90;99.90;;;;;;5029476;28;20058;-35
2024/01/27 11:10:23;;;;;;;21.55;7.28;;;6.10;99.90;;;;;;5024206;28;20142;-35
2024/01/27 11:12:52;;;;;;;20.52;6.97;;;6.10;99.90;;;;;;5019187;28;20414;-35
2024/01/27 11:15:18;;;;;;;16.13;6.72;;;6.20;99.90;;;;;;5022137;28;20352;-35
2024/01/27 11:17:46;;;;;;;17.10;6.28;;;6.30;99.90;;;;;;5017249;28;20179;-35
2024/01/27 11:20:12;;;;;;;15.45;6.80;;;6.40;99.90;;;;;;5020448;28;20148;-35
2024/01/27 11:22:40;;;;;;;11.75;6.47;;;6.50;99.90;;;;;;5027322;28;20055;-35
2024/01/27 11:25:11;;;;;;;11.20;5.10;;;6.50;99.90;;;;;;5024393;28;20057;-35
2024/01/27 11:27:38;;;;;;;13.82;5.90;;;6.70;99.90;;;;;;5023853;28;20051;-35
2024/01/27 11:30:04;;;;;;;17.10;6.45;;;6.70;99.90;;;;;;5022053;28;20057;-35
2024/01/27 11:32:31;;;;;;;12.38;6.25;;;6.80;99.90;;;;;;5022103;28;20121;-35
2024/01/27 11:34:57;;;;;;;12.80;5.80;;;6.90;99.90;;;;;;5025947;28;20495;-35
2024/01/27 11:37:26;;;;;;;16.45;6.55;;;7.00;99.90;;;;;;5023045;28;20045;-35
2024/01/27 11:39:54;;;;;;;13.63;5.82;;;7.10;99.90;;;;;;5025554;28;20049;-35
2024/01/27 11:42:20;;;;;;;13.32;5.25;;;7.20;99.90;;;;;;5019086;28;20451;-35
2024/01/27 11:44:46;;;;;;;15.98;5.15;;;7.30;99.90;;;;;;5024251;28;20055;-35
2024/01/27 11:47:16;;;;;;;12.95;5.20;;;7.50;99.90;;;;;;5028729;28;20051;-35
2024/01/27 11:49:44;;;;;;;12.20;4.00;;;7.60;99.90;;;;;;5011627;28;20502;-35
2024/01/27 11:52:10;;;;;;;13.75;4.00;;;7.70;99.90;;;;;;5028408;28;20045;-35
2024/01/27 11:54:38;;;;;;;12.98;3.85;;;7.80;99.90;;;;;;5030132;28;20052;-35
2024/01/27 11:57:04;;;;;;;14.18;4.47;;;8.00;99.90;;;;;;5025514;28;21747;-34
2024/01/27 11:59:30;;;;;;;14.25;3.67;;;8.10;99.90;;;;;;5012920;28;20045;-35
2024/01/27 12:01:55;;;;;;;18.65;4.97;;;8.20;99.90;;;;;;5025094;28;20050;-34
2024/01/27 12:04:21;;;;;;;14.05;3.85;;;8.30;99.90;;;;;;5025903;28;20427;-35
2024/01/27 12:06:48;;;;;;;12.23;3.70;;;8.40;99.90;;;;;;5032890;28;20049;-35
2024/01/27 12:09:16;;;;;;;12.00;3.88;;;8.50;99.90;;;;;;5030143;28;20058;-35
2024/01/27 12:11:42;;;;;;;16.95;3.97;;;8.70;99.90;;;;;;5020881;28;20522;-35
2024/01/27 12:14:08;;;;;;;12.95;3.83;;;8.70;99.90;;;;;;5022896;28;20041;-35
2024/01/27 12:16:34;;;;;;;11.15;3.45;;;8.90;99.90;;;;;;5032652;28;20462;-35
2024/01/27 12:19:00;;;;;;;10.35;3.38;;;9.10;99.90;;;;;;5026335;28;20103;-35
2024/01/27 12:21:25;;;;;;;11.70;3.67;;;9.30;99.90;;;;;;5030483;28;20107;-39
2024/01/27 12:23:53;;;;;;;10.25;3.22;;;9.50;99.90;;;;;;5023735;28;20532;-35
2024/01/27 12:26:21;;;;;;;9.40;2.75;;;9.60;99.90;;;;;;5019965;28;20408;-35
2024/01/27 12:28:50;;;;;;;8.93;3.00;;;9.70;99.90;;;;;;5021617;28;20061;-35
2024/01/27 12:31:20;;;;;;;14.00;3.15;;;9.90;99.90;;;;;;5024262;28;20041;-35
2024/01/27 12:33:54;;;;;;;7.82;2.85;;;9.90;99.90;;;;;;5028571;28;20049;-37
2024/01/27 12:36:21;;;;;;;10.70;2.83;;;9.90;99.90;;;;;;5025886;28;20049;-36
2024/01/27 12:39:01;;;;;;;9.57;3.08;;;10.10;99.90;;;;;;5019805;28;20466;-35